sensor_id;sensor_type;location;lat;lon;timestamp;P1;durP1;ratioP1;P2;durP2;ratioP2
69985;SDS011;57328;52.054;5.294;2023-06-14T00:00:05;6.55;;;2.40;;
69985;SDS011;57328;52.054;5.294;2023-06-14T00:02:34;6.57;;;2.70;;
69985;SDS011;57328;52.054;5.294;2023-06-14T00:05:01;8.95;;;2.70;;
69985;SDS011;57328;52.054;5.294;2023-06-14T00:07:35;7.30;;;2.60;;
69985;SDS011;57328;52.054;5.294;2023-06-14T00:10:03;7.70;;;2.63;;
69985;SDS011;57328;52.054;5.294;2023-06-14T00:12:31;6.43;;;2.60;;
69985;SDS011;57328;52.054;5.294;2023-06-14T00:14:58;8.25;;;2.40;;
69985;SDS011;57328;52.054;5.294;2023-06-14T00:17:27;4.72;;;2.30;;
69985;SDS011;57328;52.054;5.294;2023-06-14T00:19:57;5.30;;;2.47;;
69985;SDS011;57328;52.054;5.294;2023-06-14T00:22:24;5.10;;;2.13;;
69985;SDS011;57328;52.054;5.294;2023-06-14T00:24:52;6.40;;;2.60;;
69985;SDS011;57328;52.054;5.294;2023-06-14T00:27:21;7.28;;;2.70;;
69985;SDS011;57328;52.054;5.294;2023-06-14T00:29:49;9.88;;;2.65;;
69985;SDS011;57328;52.054;5.294;2023-06-14T00:32:16;4.85;;;2.42;;
69985;SDS011;57328;52.054;5.294;2023-06-14T00:34:43;7.95;;;2.72;;
69985;SDS011;57328;52.054;5.294;2023-06-14T00:37:10;4.60;;;2.35;;
69985;SDS011;57328;52.054;5.294;2023-06-14T00:39:38;5.07;;;2.42;;
69985;SDS011;57328;52.054;5.294;2023-06-14T00:42:05;8.95;;;2.65;;
69985;SDS011;57328;52.054;5.294;2023-06-14T00:44:32;7.07;;;2.40;;
69985;SDS011;57328;52.054;5.294;2023-06-14T00:47:00;8.25;;;2.53;;
69985;SDS011;57328;52.054;5.294;2023-06-14T00:49:28;6.55;;;2.38;;
69985;SDS011;57328;52.054;5.294;2023-06-14T00:51:56;5.38;;;2.05;;
69985;SDS011;57328;52.054;5.294;2023-06-14T00:54:23;6.00;;;2.15;;
69985;SDS011;57328;52.054;5.294;2023-06-14T00:56:50;4.75;;;2.35;;
69985;SDS011;57328;52.054;5.294;2023-06-14T00:59:18;7.72;;;2.72;;
69985;SDS011;57328;52.054;5.294;2023-06-14T01:01:45;7.57;;;2.40;;
69985;SDS011;57328;52.054;5.294;2023-06-14T01:04:12;7.15;;;2.47;;
69985;SDS011;57328;52.054;5.294;2023-06-14T01:09:18;8.00;;;2.65;;
69985;SDS011;57328;52.054;5.294;2023-06-14T01:12:24;6.28;;;2.60;;
69985;SDS011;57328;52.054;5.294;2023-06-14T01:14:42;7.28;;;2.60;;
69985;SDS011;57328;52.054;5.294;2023-06-14T01:17:09;10.63;;;2.70;;
69985;SDS011;57328;52.054;5.294;2023-06-14T01:19:43;6.07;;;2.42;;
69985;SDS011;57328;52.054;5.294;2023-06-14T01:22:10;8.65;;;2.83;;
69985;SDS011;57328;52.054;5.294;2023-06-14T01:24:38;8.50;;;2.47;;
69985;SDS011;57328;52.054;5.294;2023-06-14T01:27:05;9.68;;;2.45;;
69985;SDS011;57328;52.054;5.294;2023-06-14T01:29:33;10.98;;;2.50;;
69985;SDS011;57328;52.054;5.294;2023-06-14T01:32:02;4.63;;;2.30;;
69985;SDS011;57328;52.054;5.294;2023-06-14T01:34:30;5.68;;;2.28;;
69985;SDS011;57328;52.054;5.294;2023-06-14T01:36:58;5.32;;;2.53;;
69985;SDS011;57328;52.054;5.294;2023-06-14T01:39:27;8.50;;;2.58;;
69985;SDS011;57328;52.054;5.294;2023-06-14T01:41:55;5.82;;;2.50;;
69985;SDS011;57328;52.054;5.294;2023-06-14T01:44:23;4.72;;;2.20;;
69985;SDS011;57328;52.054;5.294;2023-06-14T01:46:51;8.32;;;2.45;;
69985;SDS011;57328;52.054;5.294;2023-06-14T01:49:19;8.95;;;2.45;;
69985;SDS011;57328;52.054;5.294;2023-06-14T01:51:47;8.30;;;2.88;;
69985;SDS011;57328;52.054;5.294;2023-06-14T01:54:14;7.55;;;2.53;;
69985;SDS011;57328;52.054;5.294;2023-06-14T01:56:41;6.63;;;2.13;;
69985;SDS011;57328;52.054;5.294;2023-06-14T01:59:09;8.98;;;2.40;;
69985;SDS011;57328;52.054;5.294;2023-06-14T02:01:36;6.57;;;2.50;;
69985;SDS011;57328;52.054;5.294;2023-06-14T02:04:03;8.52;;;2.70;;
69985;SDS011;57328;52.054;5.294;2023-06-14T02:06:30;8.65;;;2.88;;
69985;SDS011;57328;52.054;5.294;2023-06-14T02:08:58;5.78;;;2.22;;
69985;SDS011;57328;52.054;5.294;2023-06-14T02:11:25;8.43;;;3.42;;
69985;SDS011;57328;52.054;5.294;2023-06-14T02:13:53;5.82;;;2.50;;
69985;SDS011;57328;52.054;5.294;2023-06-14T02:16:21;10.70;;;2.55;;
69985;SDS011;57328;52.054;5.294;2023-06-14T02:18:48;4.05;;;2.08;;
69985;SDS011;57328;52.054;5.294;2023-06-14T02:24:06;9.73;;;2.95;;
69985;SDS011;57328;52.054;5.294;2023-06-14T02:26:34;6.90;;;2.50;;
69985;SDS011;57328;52.054;5.294;2023-06-14T02:29:01;5.20;;;2.30;;
69985;SDS011;57328;52.054;5.294;2023-06-14T02:31:28;7.07;;;3.08;;
69985;SDS011;57328;52.054;5.294;2023-06-14T02:33:56;7.63;;;2.40;;
69985;SDS011;57328;52.054;5.294;2023-06-14T02:36:23;7.20;;;2.53;;
69985;SDS011;57328;52.054;5.294;2023-06-14T02:38:51;7.07;;;2.20;;
69985;SDS011;57328;52.054;5.294;2023-06-14T02:41:20;7.82;;;2.53;;
69985;SDS011;57328;52.054;5.294;2023-06-14T02:43:47;8.07;;;2.28;;
69985;SDS011;57328;52.054;5.294;2023-06-14T02:46:14;5.85;;;2.30;;
69985;SDS011;57328;52.054;5.294;2023-06-14T02:48:41;6.95;;;2.55;;
69985;SDS011;57328;52.054;5.294;2023-06-14T02:51:09;12.02;;;2.75;;
69985;SDS011;57328;52.054;5.294;2023-06-14T02:53:36;8.25;;;2.50;;
69985;SDS011;57328;52.054;5.294;2023-06-14T02:56:03;9.77;;;2.55;;
69985;SDS011;57328;52.054;5.294;2023-06-14T02:58:33;9.98;;;2.47;;
69985;SDS011;57328;52.054;5.294;2023-06-14T03:01:01;7.78;;;2.47;;
69985;SDS011;57328;52.054;5.294;2023-06-14T03:03:30;8.25;;;2.60;;
69985;SDS011;57328;52.054;5.294;2023-06-14T03:05:58;6.03;;;2.70;;
69985;SDS011;57328;52.054;5.294;2023-06-14T03:08:30;9.90;;;2.63;;
69985;SDS011;57328;52.054;5.294;2023-06-14T03:11:02;5.68;;;2.50;;
69985;SDS011;57328;52.054;5.294;2023-06-14T03:13:31;6.38;;;2.55;;
69985;SDS011;57328;52.054;5.294;2023-06-14T03:15:59;8.05;;;2.30;;
69985;SDS011;57328;52.054;5.294;2023-06-14T03:18:31;6.90;;;2.60;;
69985;SDS011;57328;52.054;5.294;2023-06-14T03:21:02;7.13;;;2.83;;
69985;SDS011;57328;52.054;5.294;2023-06-14T03:23:29;9.70;;;2.70;;
69985;SDS011;57328;52.054;5.294;2023-06-14T03:25:57;6.22;;;2.45;;
69985;SDS011;57328;52.054;5.294;2023-06-14T03:28:24;8.18;;;2.53;;
69985;SDS011;57328;52.054;5.294;2023-06-14T03:30:52;7.93;;;2.50;;
69985;SDS011;57328;52.054;5.294;2023-06-14T03:33:19;5.45;;;1.90;;
69985;SDS011;57328;52.054;5.294;2023-06-14T03:35:47;7.85;;;2.38;;
69985;SDS011;57328;52.054;5.294;2023-06-14T03:38:14;6.32;;;2.25;;
69985;SDS011;57328;52.054;5.294;2023-06-14T03:40:41;6.97;;;2.40;;
69985;SDS011;57328;52.054;5.294;2023-06-14T03:43:09;9.27;;;2.67;;
69985;SDS011;57328;52.054;5.294;2023-06-14T03:45:36;6.45;;;2.13;;
69985;SDS011;57328;52.054;5.294;2023-06-14T03:48:03;6.55;;;2.30;;
69985;SDS011;57328;52.054;5.294;2023-06-14T03:50:33;6.38;;;2.30;;
69985;SDS011;57328;52.054;5.294;2023-06-14T03:53:00;8.32;;;2.40;;
69985;SDS011;57328;52.054;5.294;2023-06-14T03:55:27;10.00;;;2.65;;
69985;SDS011;57328;52.054;5.294;2023-06-14T03:58:00;7.72;;;2.75;;
69985;SDS011;57328;52.054;5.294;2023-06-14T04:00:27;11.05;;;2.70;;
69985;SDS011;57328;52.054;5.294;2023-06-14T04:02:54;6.50;;;2.42;;
69985;SDS011;57328;52.054;5.294;2023-06-14T04:05:22;7.05;;;2.38;;
69985;SDS011;57328;52.054;5.294;2023-06-14T04:07:52;9.30;;;2.40;;
69985;SDS011;57328;52.054;5.294;2023-06-14T04:10:22;7.03;;;2.03;;
69985;SDS011;57328;52.054;5.294;2023-06-14T04:12:49;6.18;;;2.20;;
69985;SDS011;57328;52.054;5.294;2023-06-14T04:15:18;8.07;;;2.38;;
69985;SDS011;57328;52.054;5.294;2023-06-14T04:17:47;9.43;;;2.20;;
69985;SDS011;57328;52.054;5.294;2023-06-14T04:20:14;7.72;;;2.63;;
69985;SDS011;57328;52.054;5.294;2023-06-14T04:22:43;7.63;;;2.80;;
69985;SDS011;57328;52.054;5.294;2023-06-14T04:25:10;4.95;;;2.20;;
69985;SDS011;57328;52.054;5.294;2023-06-14T04:27:38;6.25;;;2.70;;
69985;SDS011;57328;52.054;5.294;2023-06-14T04:30:06;5.75;;;2.38;;
69985;SDS011;57328;52.054;5.294;2023-06-14T04:32:33;9.40;;;3.03;;
69985;SDS011;57328;52.054;5.294;2023-06-14T04:35:07;6.03;;;2.50;;
69985;SDS011;57328;52.054;5.294;2023-06-14T04:37:35;7.97;;;2.63;;
69985;SDS011;57328;52.054;5.294;2023-06-14T04:40:06;5.43;;;2.30;;
69985;SDS011;57328;52.054;5.294;2023-06-14T04:42:37;6.35;;;2.35;;
69985;SDS011;57328;52.054;5.294;2023-06-14T04:45:06;7.60;;;2.70;;
69985;SDS011;57328;52.054;5.294;2023-06-14T04:50:57;8.73;;;2.53;;
69985;SDS011;57328;52.054;5.294;2023-06-14T04:56:47;8.38;;;2.65;;
69985;SDS011;57328;52.054;5.294;2023-06-14T05:02:44;7.78;;;2.63;;
69985;SDS011;57328;52.054;5.294;2023-06-14T05:05:13;10.48;;;2.60;;
69985;SDS011;57328;52.054;5.294;2023-06-14T05:07:42;7.30;;;2.83;;
69985;SDS011;57328;52.054;5.294;2023-06-14T05:10:09;7.82;;;2.47;;
69985;SDS011;57328;52.054;5.294;2023-06-14T05:12:37;5.60;;;2.33;;
69985;SDS011;57328;52.054;5.294;2023-06-14T05:15:04;5.93;;;2.55;;
69985;SDS011;57328;52.054;5.294;2023-06-14T05:17:31;6.68;;;2.78;;
69985;SDS011;57328;52.054;5.294;2023-06-14T05:19:59;5.88;;;2.60;;
69985;SDS011;57328;52.054;5.294;2023-06-14T05:22:26;7.07;;;2.65;;
69985;SDS011;57328;52.054;5.294;2023-06-14T05:24:53;7.88;;;2.70;;
69985;SDS011;57328;52.054;5.294;2023-06-14T05:27:21;9.23;;;2.60;;
69985;SDS011;57328;52.054;5.294;2023-06-14T05:29:48;7.18;;;2.90;;
69985;SDS011;57328;52.054;5.294;2023-06-14T05:32:16;9.18;;;3.00;;
69985;SDS011;57328;52.054;5.294;2023-06-14T05:34:43;5.40;;;2.53;;
69985;SDS011;57328;52.054;5.294;2023-06-14T05:37:10;6.75;;;2.67;;
69985;SDS011;57328;52.054;5.294;2023-06-14T05:39:39;6.22;;;2.80;;
69985;SDS011;57328;52.054;5.294;2023-06-14T05:42:06;10.20;;;2.97;;
69985;SDS011;57328;52.054;5.294;2023-06-14T05:44:33;9.25;;;2.80;;
69985;SDS011;57328;52.054;5.294;2023-06-14T05:47:01;7.13;;;3.03;;
69985;SDS011;57328;52.054;5.294;2023-06-14T05:49:29;8.75;;;2.85;;
69985;SDS011;57328;52.054;5.294;2023-06-14T05:51:57;9.80;;;2.80;;
69985;SDS011;57328;52.054;5.294;2023-06-14T05:54:24;7.80;;;2.90;;
69985;SDS011;57328;52.054;5.294;2023-06-14T05:56:52;7.38;;;2.72;;
69985;SDS011;57328;52.054;5.294;2023-06-14T05:59:19;5.85;;;2.80;;
69985;SDS011;57328;52.054;5.294;2023-06-14T06:04:15;6.15;;;2.60;;
69985;SDS011;57328;52.054;5.294;2023-06-14T06:06:42;10.48;;;2.90;;
69985;SDS011;57328;52.054;5.294;2023-06-14T06:09:09;8.30;;;2.83;;
69985;SDS011;57328;52.054;5.294;2023-06-14T06:11:36;9.10;;;2.78;;
69985;SDS011;57328;52.054;5.294;2023-06-14T06:14:18;6.35;;;2.67;;
69985;SDS011;57328;52.054;5.294;2023-06-14T06:16:46;7.28;;;2.63;;
69985;SDS011;57328;52.054;5.294;2023-06-14T06:19:13;5.97;;;2.65;;
69985;SDS011;57328;52.054;5.294;2023-06-14T06:21:41;8.02;;;2.95;;
69985;SDS011;57328;52.054;5.294;2023-06-14T06:24:08;8.20;;;3.20;;
69985;SDS011;57328;52.054;5.294;2023-06-14T06:26:36;6.63;;;2.67;;
69985;SDS011;57328;52.054;5.294;2023-06-14T06:29:04;7.45;;;2.70;;
69985;SDS011;57328;52.054;5.294;2023-06-14T06:31:31;5.50;;;2.72;;
69985;SDS011;57328;52.054;5.294;2023-06-14T06:33:59;10.70;;;2.83;;
69985;SDS011;57328;52.054;5.294;2023-06-14T06:36:26;7.15;;;2.92;;
69985;SDS011;57328;52.054;5.294;2023-06-14T06:38:53;9.57;;;2.72;;
69985;SDS011;57328;52.054;5.294;2023-06-14T06:41:20;9.10;;;2.92;;
69985;SDS011;57328;52.054;5.294;2023-06-14T06:43:47;4.97;;;2.40;;
69985;SDS011;57328;52.054;5.294;2023-06-14T06:46:15;9.35;;;2.65;;
69985;SDS011;57328;52.054;5.294;2023-06-14T06:48:44;7.25;;;2.30;;
69985;SDS011;57328;52.054;5.294;2023-06-14T06:51:11;6.03;;;2.40;;
69985;SDS011;57328;52.054;5.294;2023-06-14T06:53:39;9.55;;;2.78;;
69985;SDS011;57328;52.054;5.294;2023-06-14T06:56:13;8.63;;;2.60;;
69985;SDS011;57328;52.054;5.294;2023-06-14T06:58:40;6.35;;;2.50;;
69985;SDS011;57328;52.054;5.294;2023-06-14T07:01:08;7.47;;;2.85;;
69985;SDS011;57328;52.054;5.294;2023-06-14T07:03:35;7.78;;;2.90;;
69985;SDS011;57328;52.054;5.294;2023-06-14T07:06:03;4.28;;;2.40;;
69985;SDS011;57328;52.054;5.294;2023-06-14T07:08:30;7.50;;;2.60;;
69985;SDS011;57328;52.054;5.294;2023-06-14T07:10:58;6.35;;;2.55;;
69985;SDS011;57328;52.054;5.294;2023-06-14T07:13:25;5.20;;;2.53;;
69985;SDS011;57328;52.054;5.294;2023-06-14T07:15:57;7.70;;;2.53;;
69985;SDS011;57328;52.054;5.294;2023-06-14T07:18:25;7.85;;;2.67;;
69985;SDS011;57328;52.054;5.294;2023-06-14T07:20:53;5.35;;;2.47;;
69985;SDS011;57328;52.054;5.294;2023-06-14T07:23:20;6.82;;;2.47;;
69985;SDS011;57328;52.054;5.294;2023-06-14T07:25:48;7.32;;;2.90;;
69985;SDS011;57328;52.054;5.294;2023-06-14T07:28:16;6.43;;;2.47;;
69985;SDS011;57328;52.054;5.294;2023-06-14T07:30:44;4.22;;;2.35;;
69985;SDS011;57328;52.054;5.294;2023-06-14T07:33:11;9.20;;;2.28;;
69985;SDS011;57328;52.054;5.294;2023-06-14T07:35:40;3.90;;;2.03;;
69985;SDS011;57328;52.054;5.294;2023-06-14T07:38:08;6.20;;;2.70;;
69985;SDS011;57328;52.054;5.294;2023-06-14T07:40:35;6.18;;;2.35;;
69985;SDS011;57328;52.054;5.294;2023-06-14T07:43:03;5.18;;;2.47;;
69985;SDS011;57328;52.054;5.294;2023-06-14T07:45:31;7.07;;;2.38;;
69985;SDS011;57328;52.054;5.294;2023-06-14T07:47:58;5.65;;;2.30;;
69985;SDS011;57328;52.054;5.294;2023-06-14T07:50:27;6.18;;;2.22;;
69985;SDS011;57328;52.054;5.294;2023-06-14T07:52:57;7.70;;;2.20;;
69985;SDS011;57328;52.054;5.294;2023-06-14T07:55:24;6.45;;;2.25;;
69985;SDS011;57328;52.054;5.294;2023-06-14T07:57:57;3.70;;;2.10;;
69985;SDS011;57328;52.054;5.294;2023-06-14T08:00:25;5.65;;;2.03;;
69985;SDS011;57328;52.054;5.294;2023-06-14T08:02:54;4.03;;;1.67;;
69985;SDS011;57328;52.054;5.294;2023-06-14T08:05:27;6.35;;;2.08;;
69985;SDS011;57328;52.054;5.294;2023-06-14T08:07:54;4.57;;;2.22;;
69985;SDS011;57328;52.054;5.294;2023-06-14T08:10:22;4.70;;;2.15;;
69985;SDS011;57328;52.054;5.294;2023-06-14T08:12:50;5.90;;;2.10;;
69985;SDS011;57328;52.054;5.294;2023-06-14T08:15:18;6.75;;;2.08;;
69985;SDS011;57328;52.054;5.294;2023-06-14T08:17:48;7.90;;;2.10;;
69985;SDS011;57328;52.054;5.294;2023-06-14T08:20:15;3.42;;;1.77;;
69985;SDS011;57328;52.054;5.294;2023-06-14T08:25:12;3.17;;;1.63;;
69985;SDS011;57328;52.054;5.294;2023-06-14T08:27:40;5.15;;;1.60;;
69985;SDS011;57328;52.054;5.294;2023-06-14T08:30:08;2.58;;;1.40;;
69985;SDS011;57328;52.054;5.294;2023-06-14T08:32:51;5.95;;;1.70;;
69985;SDS011;57328;52.054;5.294;2023-06-14T08:35:38;2.00;;;1.17;;
69985;SDS011;57328;52.054;5.294;2023-06-14T08:38:05;4.70;;;1.70;;
69985;SDS011;57328;52.054;5.294;2023-06-14T08:40:33;3.30;;;1.35;;
69985;SDS011;57328;52.054;5.294;2023-06-14T08:43:04;4.70;;;1.65;;
69985;SDS011;57328;52.054;5.294;2023-06-14T08:45:31;6.15;;;1.48;;
69985;SDS011;57328;52.054;5.294;2023-06-14T08:47:59;3.30;;;1.52;;
69985;SDS011;57328;52.054;5.294;2023-06-14T08:50:29;3.80;;;1.60;;
69985;SDS011;57328;52.054;5.294;2023-06-14T08:52:59;7.18;;;1.60;;
69985;SDS011;57328;52.054;5.294;2023-06-14T08:55:30;5.82;;;1.58;;
69985;SDS011;57328;52.054;5.294;2023-06-14T08:58:02;3.92;;;1.60;;
69985;SDS011;57328;52.054;5.294;2023-06-14T09:00:31;1.88;;;1.25;;
69985;SDS011;57328;52.054;5.294;2023-06-14T09:03:00;3.72;;;1.58;;
69985;SDS011;57328;52.054;5.294;2023-06-14T09:05:31;4.35;;;1.70;;
69985;SDS011;57328;52.054;5.294;2023-06-14T09:07:58;4.32;;;1.27;;
69985;SDS011;57328;52.054;5.294;2023-06-14T09:10:31;4.47;;;1.45;;
69985;SDS011;57328;52.054;5.294;2023-06-14T09:13:04;2.90;;;1.50;;
69985;SDS011;57328;52.054;5.294;2023-06-14T09:15:31;6.03;;;1.65;;
69985;SDS011;57328;52.054;5.294;2023-06-14T09:18:00;3.92;;;1.40;;
69985;SDS011;57328;52.054;5.294;2023-06-14T09:20:29;4.25;;;1.30;;
69985;SDS011;57328;52.054;5.294;2023-06-14T09:22:57;2.45;;;1.23;;
69985;SDS011;57328;52.054;5.294;2023-06-14T09:25:24;2.80;;;1.35;;
69985;SDS011;57328;52.054;5.294;2023-06-14T09:30:32;2.72;;;1.40;;
69985;SDS011;57328;52.054;5.294;2023-06-14T09:33:00;1.83;;;1.20;;
69985;SDS011;57328;52.054;5.294;2023-06-14T09:35:27;2.78;;;1.30;;
69985;SDS011;57328;52.054;5.294;2023-06-14T09:37:57;2.35;;;1.15;;
69985;SDS011;57328;52.054;5.294;2023-06-14T09:40:25;5.90;;;1.50;;
69985;SDS011;57328;52.054;5.294;2023-06-14T09:42:54;4.82;;;1.50;;
69985;SDS011;57328;52.054;5.294;2023-06-14T09:45:25;2.60;;;1.17;;
69985;SDS011;57328;52.054;5.294;2023-06-14T09:47:56;2.35;;;1.33;;
69985;SDS011;57328;52.054;5.294;2023-06-14T09:50:33;4.30;;;1.27;;
69985;SDS011;57328;52.054;5.294;2023-06-14T09:53:06;2.88;;;1.30;;
69985;SDS011;57328;52.054;5.294;2023-06-14T09:55:35;4.38;;;1.40;;
69985;SDS011;57328;52.054;5.294;2023-06-14T09:58:04;2.90;;;1.17;;
69985;SDS011;57328;52.054;5.294;2023-06-14T10:00:34;5.20;;;1.30;;
69985;SDS011;57328;52.054;5.294;2023-06-14T10:03:11;1.55;;;1.00;;
69985;SDS011;57328;52.054;5.294;2023-06-14T10:05:39;1.70;;;1.20;;
69985;SDS011;57328;52.054;5.294;2023-06-14T10:08:09;4.47;;;1.50;;
69985;SDS011;57328;52.054;5.294;2023-06-14T10:10:40;3.58;;;1.40;;
69985;SDS011;57328;52.054;5.294;2023-06-14T10:13:07;5.20;;;1.63;;
69985;SDS011;57328;52.054;5.294;2023-06-14T10:20:53;2.90;;;1.38;;
69985;SDS011;57328;52.054;5.294;2023-06-14T10:23:22;2.80;;;1.33;;
69985;SDS011;57328;52.054;5.294;2023-06-14T10:25:54;3.60;;;1.40;;
69985;SDS011;57328;52.054;5.294;2023-06-14T10:28:22;2.78;;;1.15;;
69985;SDS011;57328;52.054;5.294;2023-06-14T10:31:10;2.08;;;1.13;;
69985;SDS011;57328;52.054;5.294;2023-06-14T10:33:55;5.38;;;1.40;;
69985;SDS011;57328;52.054;5.294;2023-06-14T10:39:06;2.10;;;1.20;;
69985;SDS011;57328;52.054;5.294;2023-06-14T10:41:36;3.95;;;1.50;;
69985;SDS011;57328;52.054;5.294;2023-06-14T10:46:49;3.10;;;1.30;;
69985;SDS011;57328;52.054;5.294;2023-06-14T10:51:50;3.15;;;1.10;;
69985;SDS011;57328;52.054;5.294;2023-06-14T10:54:21;3.38;;;1.30;;
69985;SDS011;57328;52.054;5.294;2023-06-14T10:56:50;1.98;;;1.20;;
69985;SDS011;57328;52.054;5.294;2023-06-14T10:59:19;3.65;;;1.30;;
69985;SDS011;57328;52.054;5.294;2023-06-14T11:04:14;4.05;;;1.30;;
69985;SDS011;57328;52.054;5.294;2023-06-14T11:06:47;1.60;;;1.10;;
69985;SDS011;57328;52.054;5.294;2023-06-14T11:11:51;4.13;;;1.58;;
69985;SDS011;57328;52.054;5.294;2023-06-14T11:14:21;10.55;;;1.70;;
69985;SDS011;57328;52.054;5.294;2023-06-14T11:16:51;9.68;;;1.50;;
69985;SDS011;57328;52.054;5.294;2023-06-14T11:19:19;9.23;;;1.50;;
69985;SDS011;57328;52.054;5.294;2023-06-14T11:21:47;1.85;;;1.25;;
69985;SDS011;57328;52.054;5.294;2023-06-14T11:24:14;5.13;;;1.30;;
69985;SDS011;57328;52.054;5.294;2023-06-14T11:29:09;4.95;;;1.60;;
69985;SDS011;57328;52.054;5.294;2023-06-14T11:31:37;4.90;;;1.33;;
69985;SDS011;57328;52.054;5.294;2023-06-14T11:34:04;3.22;;;1.33;;
69985;SDS011;57328;52.054;5.294;2023-06-14T11:36:33;3.35;;;1.33;;
69985;SDS011;57328;52.054;5.294;2023-06-14T11:39:03;2.60;;;1.17;;
69985;SDS011;57328;52.054;5.294;2023-06-14T11:41:36;5.50;;;1.55;;
69985;SDS011;57328;52.054;5.294;2023-06-14T11:44:04;3.42;;;1.23;;
69985;SDS011;57328;52.054;5.294;2023-06-14T11:46:32;4.13;;;1.40;;
69985;SDS011;57328;52.054;5.294;2023-06-14T11:49:01;3.17;;;1.40;;
69985;SDS011;57328;52.054;5.294;2023-06-14T11:51:33;4.95;;;1.50;;
69985;SDS011;57328;52.054;5.294;2023-06-14T11:56:32;5.43;;;1.58;;
69985;SDS011;57328;52.054;5.294;2023-06-14T11:59:09;4.03;;;1.40;;
69985;SDS011;57328;52.054;5.294;2023-06-14T12:01:36;3.20;;;1.50;;
69985;SDS011;57328;52.054;5.294;2023-06-14T12:04:06;2.08;;;1.25;;
69985;SDS011;57328;52.054;5.294;2023-06-14T12:06:33;5.43;;;1.40;;
69985;SDS011;57328;52.054;5.294;2023-06-14T12:09:06;3.35;;;1.50;;
69985;SDS011;57328;52.054;5.294;2023-06-14T12:11:47;3.90;;;1.60;;
69985;SDS011;57328;52.054;5.294;2023-06-14T12:14:15;3.88;;;1.42;;
69985;SDS011;57328;52.054;5.294;2023-06-14T12:16:43;3.67;;;1.50;;
69985;SDS011;57328;52.054;5.294;2023-06-14T12:19:14;4.22;;;1.45;;
69985;SDS011;57328;52.054;5.294;2023-06-14T12:21:43;2.63;;;1.40;;
69985;SDS011;57328;52.054;5.294;2023-06-14T12:24:20;2.55;;;1.15;;
69985;SDS011;57328;52.054;5.294;2023-06-14T12:26:51;5.72;;;1.33;;
69985;SDS011;57328;52.054;5.294;2023-06-14T12:29:19;4.57;;;1.60;;
69985;SDS011;57328;52.054;5.294;2023-06-14T12:31:47;3.33;;;1.30;;
69985;SDS011;57328;52.054;5.294;2023-06-14T12:34:21;6.47;;;1.50;;
69985;SDS011;57328;52.054;5.294;2023-06-14T12:36:57;3.85;;;1.50;;
69985;SDS011;57328;52.054;5.294;2023-06-14T12:39:25;6.72;;;1.40;;
69985;SDS011;57328;52.054;5.294;2023-06-14T12:41:54;5.00;;;1.40;;
69985;SDS011;57328;52.054;5.294;2023-06-14T12:44:21;3.97;;;1.33;;
69985;SDS011;57328;52.054;5.294;2023-06-14T12:46:50;4.00;;;1.30;;
69985;SDS011;57328;52.054;5.294;2023-06-14T12:49:22;3.13;;;1.23;;
69985;SDS011;57328;52.054;5.294;2023-06-14T12:51:50;4.40;;;1.50;;
69985;SDS011;57328;52.054;5.294;2023-06-14T12:54:17;2.05;;;0.98;;
69985;SDS011;57328;52.054;5.294;2023-06-14T12:57:04;2.33;;;1.10;;
69985;SDS011;57328;52.054;5.294;2023-06-14T12:59:33;4.10;;;1.25;;
69985;SDS011;57328;52.054;5.294;2023-06-14T13:02:13;5.45;;;1.25;;
69985;SDS011;57328;52.054;5.294;2023-06-14T13:04:43;2.67;;;1.40;;
69985;SDS011;57328;52.054;5.294;2023-06-14T13:07:11;3.10;;;1.25;;
69985;SDS011;57328;52.054;5.294;2023-06-14T13:09:41;3.08;;;1.30;;
69985;SDS011;57328;52.054;5.294;2023-06-14T13:12:11;2.25;;;1.00;;
69985;SDS011;57328;52.054;5.294;2023-06-14T13:14:47;2.92;;;1.23;;
69985;SDS011;57328;52.054;5.294;2023-06-14T13:17:14;3.83;;;1.30;;
69985;SDS011;57328;52.054;5.294;2023-06-14T13:19:42;4.15;;;1.33;;
69985;SDS011;57328;52.054;5.294;2023-06-14T13:25:39;2.72;;;1.42;;
69985;SDS011;57328;52.054;5.294;2023-06-14T13:28:07;2.75;;;1.15;;
69985;SDS011;57328;52.054;5.294;2023-06-14T13:30:34;4.47;;;1.45;;
69985;SDS011;57328;52.054;5.294;2023-06-14T13:33:01;7.63;;;1.48;;
69985;SDS011;57328;52.054;5.294;2023-06-14T13:35:29;2.53;;;1.27;;
69985;SDS011;57328;52.054;5.294;2023-06-14T13:37:56;4.00;;;1.35;;
69985;SDS011;57328;52.054;5.294;2023-06-14T13:40:23;4.22;;;1.70;;
69985;SDS011;57328;52.054;5.294;2023-06-14T13:45:38;3.40;;;1.58;;
69985;SDS011;57328;52.054;5.294;2023-06-14T13:48:05;4.63;;;1.60;;
69985;SDS011;57328;52.054;5.294;2023-06-14T13:50:32;5.22;;;1.35;;
69985;SDS011;57328;52.054;5.294;2023-06-14T13:53:00;3.08;;;1.48;;
69985;SDS011;57328;52.054;5.294;2023-06-14T13:55:28;3.30;;;1.45;;
69985;SDS011;57328;52.054;5.294;2023-06-14T13:57:55;3.60;;;1.20;;
69985;SDS011;57328;52.054;5.294;2023-06-14T14:00:23;3.83;;;1.48;;
69985;SDS011;57328;52.054;5.294;2023-06-14T14:02:52;3.55;;;1.30;;
69985;SDS011;57328;52.054;5.294;2023-06-14T14:05:20;6.20;;;1.40;;
69985;SDS011;57328;52.054;5.294;2023-06-14T14:07:53;6.32;;;1.30;;
69985;SDS011;57328;52.054;5.294;2023-06-14T14:10:21;2.95;;;1.15;;
69985;SDS011;57328;52.054;5.294;2023-06-14T14:12:51;3.67;;;1.05;;
69985;SDS011;57328;52.054;5.294;2023-06-14T14:15:21;3.25;;;1.02;;
69985;SDS011;57328;52.054;5.294;2023-06-14T14:17:48;4.60;;;1.27;;
69985;SDS011;57328;52.054;5.294;2023-06-14T14:22:44;3.70;;;1.52;;
69985;SDS011;57328;52.054;5.294;2023-06-14T14:25:11;5.10;;;1.30;;
69985;SDS011;57328;52.054;5.294;2023-06-14T14:27:38;4.25;;;1.30;;
69985;SDS011;57328;52.054;5.294;2023-06-14T14:30:06;4.90;;;1.50;;
69985;SDS011;57328;52.054;5.294;2023-06-14T14:35:40;3.13;;;1.38;;
69985;SDS011;57328;52.054;5.294;2023-06-14T14:38:08;3.10;;;1.33;;
69985;SDS011;57328;52.054;5.294;2023-06-14T14:41:12;5.15;;;1.60;;
69985;SDS011;57328;52.054;5.294;2023-06-14T14:48:00;2.80;;;1.35;;
69985;SDS011;57328;52.054;5.294;2023-06-14T14:50:32;3.03;;;1.10;;
69985;SDS011;57328;52.054;5.294;2023-06-14T14:52:59;1.65;;;1.00;;
69985;SDS011;57328;52.054;5.294;2023-06-14T14:55:27;2.38;;;1.17;;
69985;SDS011;57328;52.054;5.294;2023-06-14T14:57:55;3.92;;;0.95;;
69985;SDS011;57328;52.054;5.294;2023-06-14T15:00:22;3.25;;;1.00;;
69985;SDS011;57328;52.054;5.294;2023-06-14T15:02:50;2.17;;;1.10;;
69985;SDS011;57328;52.054;5.294;2023-06-14T15:05:17;3.72;;;1.13;;
69985;SDS011;57328;52.054;5.294;2023-06-14T15:07:45;2.25;;;1.13;;
69985;SDS011;57328;52.054;5.294;2023-06-14T15:10:14;2.05;;;1.10;;
69985;SDS011;57328;52.054;5.294;2023-06-14T15:12:41;2.50;;;1.25;;
69985;SDS011;57328;52.054;5.294;2023-06-14T15:15:10;3.88;;;1.83;;
69985;SDS011;57328;52.054;5.294;2023-06-14T15:17:51;1.55;;;0.82;;
69985;SDS011;57328;52.054;5.294;2023-06-14T15:20:19;6.30;;;1.50;;
69985;SDS011;57328;52.054;5.294;2023-06-14T15:22:46;3.10;;;0.85;;
69985;SDS011;57328;52.054;5.294;2023-06-14T15:25:16;1.65;;;0.93;;
69985;SDS011;57328;52.054;5.294;2023-06-14T15:27:44;2.03;;;1.10;;
69985;SDS011;57328;52.054;5.294;2023-06-14T15:30:11;5.28;;;1.85;;
69985;SDS011;57328;52.054;5.294;2023-06-14T15:35:06;2.15;;;1.10;;
69985;SDS011;57328;52.054;5.294;2023-06-14T15:37:34;2.53;;;1.20;;
69985;SDS011;57328;52.054;5.294;2023-06-14T15:40:01;1.55;;;1.00;;
69985;SDS011;57328;52.054;5.294;2023-06-14T15:42:28;4.55;;;1.27;;
69985;SDS011;57328;52.054;5.294;2023-06-14T15:44:56;4.85;;;1.20;;
69985;SDS011;57328;52.054;5.294;2023-06-14T15:47:23;1.55;;;1.10;;
69985;SDS011;57328;52.054;5.294;2023-06-14T15:49:51;2.40;;;1.10;;
69985;SDS011;57328;52.054;5.294;2023-06-14T15:52:18;2.22;;;1.17;;
69985;SDS011;57328;52.054;5.294;2023-06-14T15:54:45;4.68;;;1.90;;
69985;SDS011;57328;52.054;5.294;2023-06-14T15:57:13;2.97;;;1.10;;
69985;SDS011;57328;52.054;5.294;2023-06-14T15:59:40;4.38;;;1.10;;
69985;SDS011;57328;52.054;5.294;2023-06-14T16:02:08;2.38;;;1.20;;